Time,TemperatureF,DewpointF,PressureIn,WindDirection,WindDirectionDegrees,WindSpeedMPH,WindSpeedGustMPH,Humidity,HourlyPrecipIn,Conditions,Clouds,dailyrainin,SoftwareType,DateUTC
2013-03-22 00:02:00,19.0,2.0,-100.00,NW,324,1.0,4.0,47,-99.99,,,-99.99,,2013-03-22 06:02:00,
2013-03-22 00:12:00,19.0,3.0,-100.00,WSW,253,3.0,5.0,49,-99.99,,,-99.99,,2013-03-22 06:12:00,
2013-03-22 00:22:00,19.0,3.0,-100.00,WSW,253,3.0,5.0,49,-99.99,,,-99.99,,2013-03-22 06:22:00,
2013-03-22 00:32:00,19.0,3.0,-100.00,WSW,253,3.0,5.0,49,-99.99,,,-99.99,,2013-03-22 06:32:00,
2013-03-22 00:42:00,19.0,4.0,-100.00,West,268,4.0,6.0,51,-99.99,,,-99.99,,2013-03-22 06:42:00,
2013-03-22 00:52:00,19.0,4.0,-100.00,West,268,4.0,6.0,51,-99.99,,,-99.99,,2013-03-22 06:52:00,
2013-03-22 01:02:00,19.0,3.0,-100.00,West,262,5.0,9.0,49,-99.99,,,-99.99,,2013-03-22 07:02:00,
2013-03-22 01:12:00,19.0,3.0,-100.00,SSW,213,2.0,5.0,49,-99.99,,,-99.99,,2013-03-22 07:12:00,
2013-03-22 01:22:00,19.0,3.0,-100.00,SSW,213,2.0,5.0,49,-99.99,,,-99.99,,2013-03-22 07:22:00,
2013-03-22 01:32:00,19.0,3.0,-100.00,SSW,213,2.0,5.0,49,-99.99,,,-99.99,,2013-03-22 07:32:00,
2013-03-22 01:42:00,18.0,4.0,-100.00,NNW,328,2.0,5.0,52,-99.99,,,-99.99,,2013-03-22 07:42:00,
2013-03-22 01:52:00,18.0,4.0,-100.00,NNW,328,2.0,5.0,52,-99.99,,,-99.99,,2013-03-22 07:52:00,
2013-03-22 02:02:00,18.0,4.0,-100.00,WSW,250,3.0,5.0,53,-99.99,,,-99.99,,2013-03-22 08:02:00,
2013-03-22 02:12:00,18.0,4.0,-100.00,SSW,213,3.0,5.0,53,-99.99,,,-99.99,,2013-03-22 08:12:00,
2013-03-22 02:22:00,18.0,4.0,-100.00,SSW,213,3.0,5.0,53,-99.99,,,-99.99,,2013-03-22 08:22:00,
2013-03-22 02:32:00,18.0,4.0,-100.00,SSW,213,3.0,5.0,53,-99.99,,,-99.99,,2013-03-22 08:32:00,
2013-03-22 02:42:00,18.0,5.0,-100.00,WSW,256,3.0,6.0,55,-99.99,,,-99.99,,2013-03-22 08:42:00,
2013-03-22 02:52:00,18.0,5.0,-100.00,WSW,256,3.0,6.0,55,-99.99,,,-99.99,,2013-03-22 08:52:00,
2013-03-22 03:02:00,18.0,5.0,-100.00,WSW,258,4.0,7.0,56,-99.99,,,-99.99,,2013-03-22 09:02:00,
2013-03-22 03:12:00,18.0,6.0,-100.00,West,272,5.0,10.0,59,-99.99,,,-99.99,,2013-03-22 09:12:00,
2013-03-22 03:22:00,18.0,6.0,-100.00,West,272,5.0,10.0,59,-99.99,,,-99.99,,2013-03-22 09:22:00,
2013-03-22 03:32:00,18.0,6.0,-100.00,West,272,5.0,10.0,59,-99.99,,,-99.99,,2013-03-22 09:32:00,
2013-03-22 03:42:00,18.0,8.0,-100.00,West,267,3.0,7.0,66,-99.99,,,-99.99,,2013-03-22 09:42:00,
2013-03-22 03:53:00,18.0,8.0,-100.00,West,267,3.0,7.0,66,-99.99,,,-99.99,,2013-03-22 09:53:00,
2013-03-22 04:03:00,17.0,10.0,-100.00,WNW,290,2.0,6.0,72,-99.99,,,-99.99,,2013-03-22 10:03:00,
2013-03-22 04:12:00,17.0,10.0,-100.00,West,271,2.0,6.0,75,-99.99,,,-99.99,,2013-03-22 10:12:00,
2013-03-22 04:22:00,17.0,10.0,-100.00,West,271,2.0,6.0,75,-99.99,,,-99.99,,2013-03-22 10:22:00,
2013-03-22 04:32:00,17.0,10.0,-100.00,West,271,2.0,6.0,75,-99.99,,,-99.99,,2013-03-22 10:32:00,
2013-03-22 04:42:00,16.0,10.0,-100.00,NW,322,4.0,8.0,79,-99.99,,,-99.99,,2013-03-22 10:42:00,
2013-03-22 04:52:00,16.0,10.0,-100.00,NW,322,4.0,8.0,79,-99.99,,,-99.99,,2013-03-22 10:52:00,
2013-03-22 05:02:00,15.0,11.0,-100.00,North,354,2.0,5.0,83,-99.99,,,-99.99,,2013-03-22 11:02:00,
2013-03-22 05:12:00,15.0,11.0,-100.00,NNW,347,0.0,2.0,83,-99.99,,,-99.99,,2013-03-22 11:12:00,
2013-03-22 05:22:00,15.0,11.0,-100.00,NNW,347,0.0,2.0,83,-99.99,,,-99.99,,2013-03-22 11:22:00,
2013-03-22 05:32:00,15.0,11.0,-100.00,NNW,347,0.0,2.0,83,-99.99,,,-99.99,,2013-03-22 11:32:00,
2013-03-22 05:42:00,15.0,11.0,-100.00,SSE,155,3.0,6.0,85,-99.99,,,-99.99,,2013-03-22 11:42:00,
2013-03-22 05:52:00,15.0,11.0,-100.00,SSE,155,3.0,6.0,85,-99.99,,,-99.99,,2013-03-22 11:52:00,
2013-03-22 06:02:00,15.0,9.0,-100.00,WSW,245,2.0,9.0,74,-99.99,,,-99.99,,2013-03-22 12:02:00,
2013-03-22 06:12:00,16.0,8.0,-100.00,WSW,241,4.0,10.0,69,-99.99,,,-99.99,,2013-03-22 12:12:00,
2013-03-22 06:22:00,16.0,8.0,-100.00,WSW,241,4.0,10.0,69,-99.99,,,-99.99,,2013-03-22 12:22:00,
2013-03-22 06:32:00,16.0,8.0,-100.00,WSW,241,4.0,10.0,69,-99.99,,,-99.99,,2013-03-22 12:32:00,
2013-03-22 06:42:00,16.0,7.0,-100.00,SW,234,2.0,5.0,66,-99.99,,,-99.99,,2013-03-22 12:42:00,
2013-03-22 06:52:00,16.0,7.0,-100.00,SW,234,2.0,5.0,66,-99.99,,,-99.99,,2013-03-22 12:52:00,
2013-03-22 07:02:00,17.0,7.0,-100.00,WSW,238,2.0,6.0,65,-99.99,,,-99.99,,2013-03-22 13:02:00,
2013-03-22 07:12:00,16.0,7.0,-100.00,NW,319,1.0,3.0,66,-99.99,,,-99.99,,2013-03-22 13:12:00,
2013-03-22 07:22:00,16.0,7.0,-100.00,NW,319,1.0,3.0,66,-99.99,,,-99.99,,2013-03-22 13:22:00,
2013-03-22 07:32:00,16.0,7.0,-100.00,NW,319,1.0,3.0,66,-99.99,,,-99.99,,2013-03-22 13:32:00,
2013-03-22 07:42:00,15.0,9.0,-100.00,NE,34,0.0,2.0,75,-99.99,,,-99.99,,2013-03-22 13:42:00,
2013-03-22 07:52:00,15.0,9.0,-100.00,NE,34,0.0,2.0,75,-99.99,,,-99.99,,2013-03-22 13:52:00,
2013-03-22 08:02:00,15.0,9.0,-100.00,North,9,2.0,3.0,78,-99.99,,,-99.99,,2013-03-22 14:02:00,
2013-03-22 08:12:00,15.0,10.0,-100.00,SE,130,0.0,2.0,80,-99.99,,,-99.99,,2013-03-22 14:12:00,
2013-03-22 08:22:00,15.0,10.0,-100.00,SE,130,0.0,2.0,80,-99.99,,,-99.99,,2013-03-22 14:22:00,
2013-03-22 08:31:00,15.0,10.0,-100.00,SE,130,0.0,2.0,80,-99.99,,,-99.99,,2013-03-22 14:31:00,
2013-03-22 08:42:00,15.0,11.0,-100.00,ENE,76,0.0,2.0,82,-99.99,,,-99.99,,2013-03-22 14:42:00,
2013-03-22 08:52:00,15.0,11.0,-100.00,ENE,76,0.0,2.0,82,-99.99,,,-99.99,,2013-03-22 14:52:00,
2013-03-22 09:02:00,15.0,11.0,-100.00,East,91,1.0,2.0,85,-99.99,,,-99.99,,2013-03-22 15:02:00,
2013-03-22 09:11:00,15.0,11.0,-100.00,ENE,60,1.0,2.0,86,-99.99,,,-99.99,,2013-03-22 15:11:00,
2013-03-22 09:22:00,15.0,11.0,-100.00,ENE,60,1.0,2.0,86,-99.99,,,-99.99,,2013-03-22 15:22:00,
2013-03-22 09:32:00,15.0,11.0,-100.00,ENE,60,1.0,2.0,86,-99.99,,,-99.99,,2013-03-22 15:32:00,
2013-03-22 09:42:00,15.0,13.0,-100.00,NNW,341,3.0,5.0,89,-99.99,,,-99.99,,2013-03-22 15:42:00,
2013-03-22 09:53:00,15.0,13.0,-100.00,NNW,341,3.0,5.0,89,-99.99,,,-99.99,,2013-03-22 15:53:00,
2013-03-22 10:02:00,16.0,13.0,-100.00,NW,326,3.0,6.0,89,-99.99,,,-99.99,,2013-03-22 16:02:00,
2013-03-22 10:13:00,17.0,14.0,-100.00,NW,322,3.0,6.0,87,-99.99,,,-99.99,,2013-03-22 16:13:00,
2013-03-22 10:22:00,17.0,14.0,-100.00,NW,322,3.0,6.0,87,-99.99,,,-99.99,,2013-03-22 16:22:00,
2013-03-22 10:32:00,17.0,14.0,-100.00,NW,322,3.0,6.0,87,-99.99,,,-99.99,,2013-03-22 16:32:00,
2013-03-22 10:42:00,16.0,13.0,-100.00,NNW,333,4.0,8.0,85,-99.99,,,-99.99,,2013-03-22 16:42:00,
2013-03-22 10:52:00,16.0,13.0,-100.00,NNW,333,4.0,8.0,85,-99.99,,,-99.99,,2013-03-22 16:52:00,
2013-03-22 11:03:00,16.0,13.0,-100.00,NW,324,2.0,6.0,85,-99.99,,,-99.99,,2013-03-22 17:03:00,
2013-03-22 11:12:00,17.0,13.0,-100.00,NNW,336,3.0,5.0,83,-99.99,,,-99.99,,2013-03-22 17:12:00,
2013-03-22 11:22:00,17.0,13.0,-100.00,NNW,336,3.0,5.0,83,-99.99,,,-99.99,,2013-03-22 17:22:00,
2013-03-22 11:32:00,17.0,13.0,-100.00,NNW,336,3.0,5.0,83,-99.99,,,-99.99,,2013-03-22 17:32:00,
2013-03-22 11:42:00,16.0,13.0,-100.00,North,358,3.0,8.0,87,-99.99,,,-99.99,,2013-03-22 17:42:00,
2013-03-22 11:53:00,16.0,13.0,-100.00,North,358,3.0,8.0,87,-99.99,,,-99.99,,2013-03-22 17:53:00,
2013-03-22 12:02:00,17.0,14.0,-100.00,NW,313,4.0,16.0,87,-99.99,,,-99.99,,2013-03-22 18:02:00,
2013-03-22 12:12:00,17.0,10.0,-100.00,WSW,252,10.0,21.0,72,-99.99,,,-99.99,,2013-03-22 18:12:00,
2013-03-22 12:22:00,17.0,10.0,-100.00,WSW,252,10.0,21.0,72,-99.99,,,-99.99,,2013-03-22 18:22:00,
2013-03-22 12:32:00,17.0,10.0,-100.00,WSW,252,10.0,21.0,72,-99.99,,,-99.99,,2013-03-22 18:32:00,
2013-03-22 12:42:00,16.0,9.0,-100.00,West,261,14.0,26.0,73,-99.99,,,-99.99,,2013-03-22 18:42:00,
2013-03-22 12:52:00,16.0,9.0,-100.00,West,261,14.0,26.0,73,-99.99,,,-99.99,,2013-03-22 18:52:00,
2013-03-22 13:02:00,17.0,10.0,-100.00,WSW,253,11.0,22.0,73,-99.99,,,-99.99,,2013-03-22 19:02:00,
2013-03-22 13:12:00,17.0,11.0,-100.00,WSW,245,8.0,16.0,75,-99.99,,,-99.99,,2013-03-22 19:12:00,
2013-03-22 13:22:00,17.0,11.0,-100.00,WSW,245,8.0,16.0,75,-99.99,,,-99.99,,2013-03-22 19:22:00,
2013-03-22 13:32:00,17.0,11.0,-100.00,WSW,245,8.0,16.0,75,-99.99,,,-99.99,,2013-03-22 19:32:00,
2013-03-22 13:52:00,19.0,12.0,-100.00,WSW,238,5.0,16.0,73,-99.99,,,-99.99,,2013-03-22 19:52:00,
2013-03-22 14:02:00,19.0,12.0,-100.00,WSW,257,4.0,12.0,72,-99.99,,,-99.99,,2013-03-22 20:02:00,
2013-03-22 14:12:00,19.0,11.0,-100.00,WSW,242,4.0,12.0,69,-99.99,,,-99.99,,2013-03-22 20:12:00,
2013-03-22 14:22:00,19.0,11.0,-100.00,WSW,242,4.0,12.0,69,-99.99,,,-99.99,,2013-03-22 20:22:00,
2013-03-22 14:32:00,19.0,11.0,-100.00,WSW,242,4.0,12.0,69,-99.99,,,-99.99,,2013-03-22 20:32:00,
2013-03-22 14:42:00,19.0,12.0,-100.00,WNW,295,4.0,10.0,74,-99.99,,,-99.99,,2013-03-22 20:42:00,
2013-03-22 14:52:00,19.0,12.0,-100.00,WNW,295,4.0,10.0,74,-99.99,,,-99.99,,2013-03-22 20:52:00,
2013-03-22 15:02:00,16.0,10.0,-100.00,West,265,11.0,20.0,75,-99.99,,,-99.99,,2013-03-22 21:02:00,
2013-03-22 15:12:00,16.0,7.0,-100.00,WSW,239,11.0,24.0,67,-99.99,,,-99.99,,2013-03-22 21:12:00,
2013-03-22 15:22:00,16.0,7.0,-100.00,WSW,239,11.0,24.0,67,-99.99,,,-99.99,,2013-03-22 21:22:00,
2013-03-22 15:32:00,16.0,7.0,-100.00,WSW,239,11.0,24.0,67,-99.99,,,-99.99,,2013-03-22 21:32:00,
2013-03-22 15:42:00,16.0,4.0,-100.00,WSW,250,12.0,26.0,58,-99.99,,,-99.99,,2013-03-22 21:42:00,
2013-03-22 15:53:00,16.0,4.0,-100.00,WSW,250,12.0,26.0,58,-99.99,,,-99.99,,2013-03-22 21:53:00,
2013-03-22 16:02:00,16.0,4.0,-100.00,WSW,257,11.0,26.0,56,-99.99,,,-99.99,,2013-03-22 22:02:00,
2013-03-22 16:12:00,18.0,3.0,-100.00,WSW,250,7.0,19.0,52,-99.99,,,-99.99,,2013-03-22 22:12:00,
2013-03-22 16:22:00,18.0,3.0,-100.00,WSW,250,7.0,19.0,52,-99.99,,,-99.99,,2013-03-22 22:22:00,
2013-03-22 16:32:00,18.0,3.0,-100.00,WSW,250,7.0,19.0,52,-99.99,,,-99.99,,2013-03-22 22:32:00,
2013-03-22 16:42:00,15.0,9.0,-100.00,West,264,10.0,25.0,78,-99.99,,,-99.99,,2013-03-22 22:42:00,
2013-03-22 16:53:00,15.0,9.0,-100.00,West,264,10.0,25.0,78,-99.99,,,-99.99,,2013-03-22 22:53:00,
2013-03-22 17:02:00,14.0,10.0,-100.00,West,281,6.0,17.0,84,-99.99,,,-99.99,,2013-03-22 23:02:00,
2013-03-22 17:12:00,14.0,9.0,-100.00,West,260,6.0,21.0,79,-99.99,,,-99.99,,2013-03-22 23:12:00,
2013-03-22 17:22:00,14.0,9.0,-100.00,West,260,6.0,21.0,79,-99.99,,,-99.99,,2013-03-22 23:22:00,
2013-03-22 17:32:00,14.0,9.0,-100.00,West,260,6.0,21.0,79,-99.99,,,-99.99,,2013-03-22 23:32:00,
2013-03-22 17:42:00,15.0,7.0,-100.00,West,279,6.0,15.0,69,-99.99,,,-99.99,,2013-03-22 23:42:00,
2013-03-22 17:52:00,15.0,7.0,-100.00,West,279,6.0,15.0,69,-99.99,,,-99.99,,2013-03-22 23:52:00,
2013-03-22 18:02:00,14.0,9.0,-100.00,NW,317,4.0,12.0,80,-99.99,,,-99.99,,2013-03-23 00:02:00,
2013-03-22 18:12:00,14.0,10.0,-100.00,WNW,282,5.0,16.0,83,-99.99,,,-99.99,,2013-03-23 00:12:00,
2013-03-22 18:22:00,14.0,10.0,-100.00,WNW,282,5.0,16.0,83,-99.99,,,-99.99,,2013-03-23 00:22:00,
2013-03-22 18:32:00,14.0,10.0,-100.00,WNW,282,5.0,16.0,83,-99.99,,,-99.99,,2013-03-23 00:32:00,
2013-03-22 18:42:00,14.0,7.0,-100.00,WNW,285,7.0,15.0,73,-99.99,,,-99.99,,2013-03-23 00:42:00,
2013-03-22 18:52:00,14.0,7.0,-100.00,WNW,285,7.0,15.0,73,-99.99,,,-99.99,,2013-03-23 00:52:00,
2013-03-22 19:03:00,14.0,6.0,-100.00,WNW,291,6.0,15.0,71,-99.99,,,-99.99,,2013-03-23 01:03:00,
2013-03-22 19:11:00,14.0,6.0,-100.00,WNW,285,6.0,17.0,69,-99.99,,,-99.99,,2013-03-23 01:11:00,
2013-03-22 19:22:00,14.0,6.0,-100.00,WNW,285,6.0,17.0,69,-99.99,,,-99.99,,2013-03-23 01:22:00,
2013-03-22 19:31:00,14.0,6.0,-100.00,WNW,285,6.0,17.0,69,-99.99,,,-99.99,,2013-03-23 01:31:00,
2013-03-22 19:42:00,13.0,5.0,-100.00,West,276,8.0,18.0,68,-99.99,,,-99.99,,2013-03-23 01:42:00,
2013-03-22 19:52:00,13.0,5.0,-100.00,West,276,8.0,18.0,68,-99.99,,,-99.99,,2013-03-23 01:52:00,
2013-03-22 20:02:00,13.0,5.0,-100.00,WNW,283,6.0,14.0,68,-99.99,,,-99.99,,2013-03-23 02:02:00,
2013-03-22 20:12:00,13.0,5.0,-100.00,WNW,286,7.0,15.0,67,-99.99,,,-99.99,,2013-03-23 02:12:00,
2013-03-22 20:22:00,13.0,5.0,-100.00,WNW,286,7.0,15.0,67,-99.99,,,-99.99,,2013-03-23 02:22:00,
2013-03-22 20:31:00,13.0,5.0,-100.00,WNW,286,7.0,15.0,67,-99.99,,,-99.99,,2013-03-23 02:31:00,
2013-03-22 20:42:00,13.0,5.0,-100.00,West,260,8.0,16.0,69,-99.99,,,-99.99,,2013-03-23 02:42:00,
2013-03-22 20:52:00,13.0,5.0,-100.00,West,260,8.0,16.0,69,-99.99,,,-99.99,,2013-03-23 02:52:00,
2013-03-22 21:02:00,13.0,3.0,-100.00,West,264,8.0,16.0,65,-99.99,,,-99.99,,2013-03-23 03:02:00,
2013-03-22 21:12:00,12.0,3.0,-100.00,West,260,8.0,19.0,66,-99.99,,,-99.99,,2013-03-23 03:12:00,
2013-03-22 21:22:00,12.0,3.0,-100.00,West,260,8.0,19.0,66,-99.99,,,-99.99,,2013-03-23 03:22:00,
2013-03-22 21:32:00,12.0,3.0,-100.00,West,260,8.0,19.0,66,-99.99,,,-99.99,,2013-03-23 03:32:00,
2013-03-22 21:43:00,12.0,2.0,-100.00,West,266,6.0,13.0,61,-99.99,,,-99.99,,2013-03-23 03:43:00,
2013-03-22 21:53:00,12.0,2.0,-100.00,West,266,6.0,13.0,61,-99.99,,,-99.99,,2013-03-23 03:53:00,
2013-03-22 22:02:00,12.0,2.0,-100.00,West,266,6.0,13.0,61,-99.99,,,-99.99,,2013-03-23 04:02:00,
2013-03-22 22:12:00,12.0,3.0,-100.00,WNW,289,4.0,11.0,66,-99.99,,,-99.99,,2013-03-23 04:12:00,
2013-03-22 22:23:00,12.0,3.0,-100.00,WNW,289,4.0,11.0,66,-99.99,,,-99.99,,2013-03-23 04:23:00,
2013-03-22 22:32:00,12.0,3.0,-100.00,WNW,289,4.0,11.0,66,-99.99,,,-99.99,,2013-03-23 04:32:00,
2013-03-22 22:42:00,12.0,3.0,-100.00,NNE,24,4.0,11.0,67,-99.99,,,-99.99,,2013-03-23 04:42:00,
2013-03-22 22:53:00,12.0,3.0,-100.00,NNE,24,4.0,11.0,67,-99.99,,,-99.99,,2013-03-23 04:53:00,
2013-03-22 23:02:00,12.0,6.0,-100.00,NW,306,4.0,8.0,78,-99.99,,,-99.99,,2013-03-23 05:02:00,
2013-03-22 23:12:00,12.0,8.0,-100.00,WNW,284,4.0,6.0,83,-99.99,,,-99.99,,2013-03-23 05:12:00,
2013-03-22 23:22:00,12.0,8.0,-100.00,WNW,284,4.0,6.0,83,-99.99,,,-99.99,,2013-03-23 05:22:00,
2013-03-22 23:32:00,12.0,8.0,-100.00,WNW,284,4.0,6.0,83,-99.99,,,-99.99,,2013-03-23 05:32:00,
2013-03-22 23:42:00,12.0,8.0,-100.00,NW,306,4.0,9.0,86,-99.99,,,-99.99,,2013-03-23 05:42:00,
2013-03-22 23:52:00,12.0,8.0,-100.00,NW,306,4.0,9.0,86,-99.99,,,-99.99,,2013-03-23 05:52:00,